createdAt,value
2023-05-14T00:00:38.886Z,97715.03
2023-05-14T00:11:01.290Z,97706.16
2023-05-14T00:21:03.700Z,97694.91
2023-05-14T00:31:06.111Z,97687.94
2023-05-14T00:41:08.405Z,97683.06
2023-05-14T00:51:11.574Z,97676.72
2023-05-14T01:01:15.504Z,97672.84
2023-05-14T01:11:22.640Z,97671.84
2023-05-14T01:21:38.076Z,97666.34
2023-05-14T01:31:44.358Z,97658.88
2023-05-14T01:41:47.549Z,97654.78
2023-05-14T01:51:49.906Z,97646.69
2023-05-14T02:01:52.307Z,97643.50
2023-05-14T02:11:54.587Z,97637.66
2023-05-14T02:21:56.931Z,97636.78
2023-05-14T02:31:59.258Z,97637.06
2023-05-14T02:42:01.543Z,97628.13
2023-05-14T05:50:09.979Z,97536.59
2023-05-14T06:00:15.820Z,97534.56
2023-05-14T06:10:18.154Z,97528.84
2023-05-14T06:20:20.710Z,97530.16
2023-05-14T06:30:23.505Z,97525.38
2023-05-14T06:40:26.170Z,97524.53
2023-05-14T06:50:28.678Z,97511.59
2023-05-14T07:00:30.977Z,97513.09
2023-05-14T07:10:33.566Z,97486.31
2023-05-14T07:20:35.947Z,97491.66
2023-05-14T07:30:38.259Z,97496.91
2023-05-14T07:40:40.570Z,97496.38
2023-05-14T07:50:42.835Z,97498.22
2023-05-14T08:00:45.137Z,97485.84
2023-05-14T08:10:47.434Z,97485.03
2023-05-14T08:20:49.816Z,97476.03
2023-05-14T08:30:52.295Z,97463.94
2023-05-14T08:40:58.200Z,97443.31
2023-05-14T08:51:01.115Z,97438.34
2023-05-14T09:01:04.069Z,97437.88
2023-05-14T09:11:07.035Z,97421.94
2023-05-14T09:21:09.329Z,97420.13
2023-05-14T09:31:11.652Z,97405.50
2023-05-14T09:41:13.930Z,97400.56
2023-05-14T09:51:17.926Z,97390.69
2023-05-14T10:01:21.305Z,97378.63
2023-05-14T10:11:31.140Z,97372.91
2023-05-14T10:21:35.931Z,97368.84
2023-05-14T10:31:55.632Z,97359.47
2023-05-14T10:41:57.991Z,97352.75
2023-05-14T10:52:01.887Z,97344.47
2023-05-14T11:02:05.812Z,97344.75
2023-05-14T11:12:08.986Z,97337.22
2023-05-14T11:22:13.887Z,97331.50
2023-05-14T11:32:17.387Z,97329.78
2023-05-14T11:42:21.084Z,97326.84
2023-05-14T11:52:23.461Z,97319.13
2023-05-14T12:02:29.546Z,97323.06
2023-05-14T12:12:37.448Z,97322.34
2023-05-14T12:22:42.585Z,97313.47
2023-05-14T12:32:44.965Z,97318.28
2023-05-14T12:42:47.424Z,97304.81
2023-05-14T12:52:49.726Z,97306.63
2023-05-14T13:02:52.331Z,97288.34
2023-05-14T13:12:54.733Z,97286.84
2023-05-14T13:22:57.612Z,97278.22
2023-05-14T13:33:00.138Z,97268.22
2023-05-14T13:43:03.288Z,97266.88
2023-05-14T13:53:05.781Z,97250.25
2023-05-14T14:03:08.450Z,97248.22
2023-05-14T14:13:11.269Z,97243.41
2023-05-14T14:23:13.561Z,97246.16
2023-05-14T14:33:15.988Z,97250.34
2023-05-14T14:43:18.356Z,97242.41
2023-05-14T14:53:21.934Z,97238.94
2023-05-14T15:03:26.017Z,97224.00
2023-05-14T15:13:29.512Z,97212.31
2023-05-14T15:23:31.893Z,97212.56
2023-05-14T15:33:34.257Z,97205.41
2023-05-14T15:43:36.590Z,97199.78
2023-05-14T15:53:38.885Z,97198.66
2023-05-14T16:03:41.256Z,97200.91
2023-05-14T16:13:43.727Z,97200.44
2023-05-14T16:23:46.482Z,97196.69
2023-05-14T16:33:48.740Z,97196.81
2023-05-14T16:43:51.963Z,97187.03
2023-05-14T16:53:55.596Z,97185.50
2023-05-14T17:03:58.029Z,97182.94
2023-05-14T17:14:00.361Z,97171.88
2023-05-14T17:24:02.074Z,97181.81
2023-05-14T17:34:04.424Z,97188.75
2023-05-14T17:44:06.692Z,97191.34
2023-05-14T17:54:09.222Z,97187.69
2023-05-14T18:04:11.590Z,97193.72
2023-05-14T18:14:14.029Z,97174.88
2023-05-14T18:24:16.459Z,97155.31
2023-05-14T18:34:18.750Z,97148.47
2023-05-14T18:44:21.130Z,97140.44
2023-05-14T18:54:23.419Z,97145.91
2023-05-14T19:04:25.716Z,97138.28
2023-05-14T19:14:28.155Z,97141.03
2023-05-14T19:24:31.109Z,97136.63
2023-05-14T19:34:33.422Z,97137.00
2023-05-14T19:44:35.799Z,97127.38
2023-05-14T19:54:38.123Z,97108.78
2023-05-14T20:04:41.088Z,97107.88
2023-05-14T20:14:43.785Z,97104.69
2023-05-14T20:24:46.165Z,97090.28
2023-05-14T20:40:12.876Z,97086.75
2023-05-14T20:50:15.225Z,97076.09
2023-05-14T21:00:17.949Z,97066.53
2023-05-14T21:10:20.295Z,97055.72
2023-05-14T21:20:22.589Z,97047.28
2023-05-14T21:30:24.998Z,97038.00
2023-05-14T21:40:27.328Z,97021.41
2023-05-14T21:50:29.605Z,97024.63
2023-05-14T22:00:32.066Z,97013.75
2023-05-14T22:10:35.374Z,97001.47
2023-05-14T22:20:37.640Z,96981.19
2023-05-14T22:30:39.887Z,96970.38
2023-05-14T22:40:42.223Z,96961.91
2023-05-14T22:50:44.590Z,96952.59
2023-05-14T23:00:46.898Z,96934.06
2023-05-14T23:10:49.172Z,96937.59
2023-05-14T23:20:51.468Z,96910.91
2023-05-14T23:30:53.844Z,96912.28
2023-05-14T23:40:56.148Z,96902.94
2023-05-14T23:50:58.497Z,96889.06
